Time;durP1;ratioP1;P1;durP2;ratioP2;P2;SDS_P1;SDS_P2;PMS_P1;PMS_P2;Temp;Humidity;BMP_temperature;BMP_pressure;BME280_temperature;BME280_humidity;BME280_pressure;Samples;Min_cycle;Max_cycle;Signal;HPM_P1;HPM_P2
2022/03/26 00:03:25;;;;;;;51.30;27.93;;;;;6.90;102519.00;;;;10591049;23;20249;-79
2022/03/26 00:08:27;;;;;;;51.83;28.40;;;;;6.80;102518.00;;;;10224958;28;20297;-79
2022/03/26 00:13:29;;;;;;;46.10;27.13;;;;;6.70;102527.00;;;;10209480;28;20731;-80
2022/03/26 00:18:31;;;;;;;54.33;28.33;;;;;6.60;102524.00;;;;10192951;28;20269;-80
2022/03/26 00:23:33;;;;;;;52.60;27.90;;;;;6.60;102529.00;;;;10200611;28;20250;-79
2022/03/26 00:28:37;;;;;;;48.30;27.63;;;;;6.50;102524.00;;;;10131660;29;20570;-79
2022/03/26 00:33:42;;;;;;;48.20;28.57;;;;;6.40;102520.00;;;;10156407;29;20221;-80
2022/03/26 00:38:44;;;;;;;47.33;27.80;;;;;6.40;102514.00;;;;10223192;28;20775;-79
2022/03/26 00:43:45;;;;;;;46.53;26.33;;;;;6.30;102518.00;;;;10207253;28;20225;-79
2022/03/26 00:48:48;;;;;;;45.30;27.50;;;;;6.30;102512.00;;;;10201908;29;20209;-80
2022/03/26 00:53:50;;;;;;;48.60;25.80;;;;;6.30;102520.00;;;;10146518;29;20577;-79
2022/03/26 00:58:52;;;;;;;45.20;26.63;;;;;6.30;102505.00;;;;10130400;29;20203;-79
2022/03/26 01:03:54;;;;;;;42.23;24.73;;;;;6.20;102519.00;;;;10116355;29;20226;-79
2022/03/26 01:08:56;;;;;;;55.30;28.37;;;;;6.20;102508.00;;;;10183034;29;20568;-80
2022/03/26 01:13:58;;;;;;;46.70;26.73;;;;;6.10;102503.00;;;;10184430;29;20308;-80
2022/03/26 01:19:00;;;;;;;49.07;26.67;;;;;6.10;102513.00;;;;10183090;29;20194;-80
2022/03/26 01:24:02;;;;;;;44.93;27.07;;;;;6.00;102504.00;;;;10174504;29;20227;-79
2022/03/26 01:29:04;;;;;;;50.43;26.73;;;;;6.00;102502.00;;;;10129052;29;20720;-78
2022/03/26 01:34:06;;;;;;;51.20;28.23;;;;;5.90;102500.00;;;;10128199;29;20247;-80
2022/03/26 01:39:09;;;;;;;47.83;27.53;;;;;5.90;102502.00;;;;10144497;29;20195;-79
2022/03/26 01:44:13;;;;;;;44.77;25.83;;;;;5.70;102500.00;;;;10182028;29;20250;-79
2022/03/26 01:49:15;;;;;;;49.73;26.97;;;;;5.60;102510.00;;;;10140439;29;20669;-80
2022/03/26 01:54:19;;;;;;;47.93;25.63;;;;;5.50;102503.00;;;;10130491;29;20259;-79
2022/03/26 01:59:23;;;;;;;44.03;26.83;;;;;5.30;102503.00;;;;10115020;29;20298;-80
2022/03/26 02:04:25;;;;;;;48.67;27.73;;;;;5.20;102491.00;;;;10134991;29;20858;-80
2022/03/26 02:09:33;;;;;;;48.17;26.43;;;;;5.10;102479.00;;;;10181991;29;20195;-79
2022/03/26 02:14:35;;;;;;;49.17;26.13;;;;;5.00;102479.00;;;;10134666;29;20219;-80
2022/03/26 02:19:36;;;;;;;51.13;26.50;;;;;5.00;102490.00;;;;10150744;29;20900;-80
2022/03/26 02:24:38;;;;;;;46.50;26.70;;;;;4.90;102480.00;;;;10164642;29;20569;-78
2022/03/26 02:29:40;;;;;;;44.37;26.13;;;;;4.80;102475.00;;;;10134011;29;20238;-79
2022/03/26 02:34:42;;;;;;;41.37;25.63;;;;;4.80;102480.00;;;;10118855;29;20313;-80
2022/03/26 02:40:06;;;;;;;47.13;26.23;;;;;4.70;102480.00;;;;10132663;29;20301;-80
2022/03/26 02:45:09;;;;;;;48.37;26.33;;;;;4.60;102477.00;;;;10148027;29;20207;-79
2022/03/26 02:50:12;;;;;;;47.17;25.47;;;;;4.50;102482.00;;;;10138258;29;20284;-80
2022/03/26 02:55:14;;;;;;;54.20;26.43;;;;;4.50;102479.00;;;;10108235;29;20526;-80
2022/03/26 03:00:16;;;;;;;45.03;26.00;;;;;4.40;102480.00;;;;10130357;29;20234;-80
2022/03/26 03:05:18;;;;;;;43.43;26.67;;;;;4.30;102482.00;;;;10146956;29;20203;-80
2022/03/26 03:10:20;;;;;;;46.83;25.77;;;;;4.20;102481.00;;;;10129846;29;20261;-80
2022/03/26 03:15:22;;;;;;;52.67;26.50;;;;;4.10;102492.00;;;;10104285;29;20219;-79
2022/03/26 03:20:25;;;;;;;48.93;27.33;;;;;4.10;102488.00;;;;10108368;29;20204;-79
2022/03/26 03:25:29;;;;;;;44.80;25.63;;;;;4.00;102494.00;;;;10092382;29;20204;-79
2022/03/26 03:30:31;;;;;;;53.97;28.00;;;;;4.00;102494.00;;;;10091087;29;20200;-80
2022/03/26 03:35:33;;;;;;;47.00;26.27;;;;;3.90;102498.00;;;;10108975;29;20231;-80
2022/03/26 03:40:35;;;;;;;48.77;27.03;;;;;3.90;102494.00;;;;10129377;29;20210;-79
2022/03/26 03:45:37;;;;;;;50.67;26.33;;;;;3.90;102495.00;;;;10128783;29;20203;-80
2022/03/26 03:50:39;;;;;;;50.90;26.43;;;;;3.80;102504.00;;;;10154731;29;20213;-80
2022/03/26 03:55:41;;;;;;;48.53;27.53;;;;;3.70;102504.00;;;;10160170;29;20766;-80
2022/03/26 04:00:43;;;;;;;46.40;25.13;;;;;3.70;102501.00;;;;10160216;29;20223;-80
2022/03/26 04:05:45;;;;;;;48.17;26.07;;;;;3.60;102507.00;;;;10162560;29;20216;-80
2022/03/26 04:10:47;;;;;;;48.53;25.80;;;;;3.50;102508.00;;;;10183101;29;20206;-80
2022/03/26 04:15:49;;;;;;;46.53;26.87;;;;;3.50;102514.00;;;;10141585;29;20210;-79
2022/03/26 04:20:53;;;;;;;54.90;25.23;;;;;3.40;102512.00;;;;10165358;29;20198;-80
2022/03/26 04:25:55;;;;;;;52.23;26.00;;;;;3.40;102508.00;;;;10180582;29;20202;-79
2022/03/26 04:30:57;;;;;;;47.77;26.87;;;;;3.40;102514.00;;;;10181895;29;20217;-79
2022/03/26 04:35:59;;;;;;;50.90;27.07;;;;;3.30;102516.00;;;;10174847;29;20222;-78
2022/03/26 04:41:00;;;;;;;53.33;26.63;;;;;3.30;102520.00;;;;10148083;29;20247;-79
2022/03/26 04:46:02;;;;;;;50.90;27.13;;;;;3.30;102521.00;;;;10140381;29;20241;-80
2022/03/26 04:51:05;;;;;;;55.97;26.83;;;;;3.30;102523.00;;;;10154492;29;20225;-80
2022/03/26 04:56:07;;;;;;;54.97;27.23;;;;;3.30;102524.00;;;;10125773;29;20631;-80
2022/03/26 05:01:09;;;;;;;57.03;27.50;;;;;3.20;102531.00;;;;10126008;29;20214;-79
2022/03/26 05:06:11;;;;;;;60.33;29.83;;;;;3.10;102528.00;;;;10125743;29;20207;-78
2022/03/26 05:11:13;;;;;;;54.13;28.10;;;;;3.00;102520.00;;;;10125277;29;20195;-78
2022/03/26 05:16:15;;;;;;;51.17;26.13;;;;;3.00;102511.00;;;;10140601;29;20765;-78
2022/03/26 05:21:17;;;;;;;53.23;28.40;;;;;3.00;102517.00;;;;10140316;29;20199;-79
2022/03/26 05:26:22;;;;;;;51.83;27.77;;;;;2.90;102523.00;;;;10124319;29;20662;-79
2022/03/26 05:31:24;;;;;;;55.63;26.60;;;;;2.90;102535.00;;;;10146880;29;20205;-80
2022/03/26 05:36:26;;;;;;;55.50;27.57;;;;;2.90;102531.00;;;;10125466;29;20308;-80
2022/03/26 05:41:28;;;;;;;51.80;27.83;;;;;2.90;102522.00;;;;10128592;29;20202;-79
2022/03/26 05:46:30;;;;;;;54.13;29.20;;;;;3.00;102537.00;;;;10097759;29;20206;-79
2022/03/26 05:51:32;;;;;;;60.77;31.73;;;;;3.10;102540.00;;;;10147679;29;20214;-78
2022/03/26 05:56:36;;;;;;;59.37;30.93;;;;;3.20;102548.00;;;;10127899;29;20219;-80
2022/03/26 06:01:38;;;;;;;53.67;29.37;;;;;3.40;102562.00;;;;10107829;29;20231;-79
2022/03/26 06:06:41;;;;;;;50.53;27.63;;;;;3.60;102564.00;;;;10111720;29;20232;-80
2022/03/26 06:11:43;;;;;;;54.63;28.97;;;;;3.90;102571.00;;;;10132457;29;20305;-80
2022/03/26 06:16:45;;;;;;;53.13;28.73;;;;;4.20;102585.00;;;;10126256;29;20223;-79
2022/03/26 06:21:48;;;;;;;49.13;27.90;;;;;4.50;102587.00;;;;10093207;29;20286;-79
2022/03/26 06:26:50;;;;;;;44.53;27.60;;;;;4.80;102578.00;;;;10123747;29;20208;-80
2022/03/26 06:31:52;;;;;;;56.67;29.23;;;;;5.00;102583.00;;;;10148064;29;20207;-80
2022/03/26 06:36:54;;;;;;;52.00;30.23;;;;;5.40;102595.00;;;;10127217;29;20317;-79
2022/03/26 06:41:57;;;;;;;56.43;29.27;;;;;5.80;102588.00;;;;10123082;29;20207;-79
2022/03/26 06:46:59;;;;;;;46.80;28.33;;;;;6.20;102588.00;;;;10115688;29;20210;-80
2022/03/26 06:52:01;;;;;;;50.50;27.67;;;;;6.80;102600.00;;;;10118772;29;20203;-80
2022/03/26 06:57:04;;;;;;;53.23;29.50;;;;;7.40;102594.00;;;;10094305;29;20228;-79
2022/03/26 07:02:06;;;;;;;49.40;28.60;;;;;8.00;102608.00;;;;10109693;29;20223;-80
2022/03/26 07:07:12;;;;;;;46.50;27.53;;;;;8.60;102608.00;;;;10168250;29;20266;-79
2022/03/26 07:12:14;;;;;;;42.23;27.20;;;;;9.00;102617.00;;;;10170007;29;21004;-79
2022/03/26 07:17:18;;;;;;;46.90;29.07;;;;;9.50;102628.00;;;;10199566;29;20365;-80
2022/03/26 07:22:20;;;;;;;46.27;29.87;;;;;9.80;102633.00;;;;10146734;29;20202;-79
2022/03/26 07:27:22;;;;;;;47.03;27.80;;;;;10.00;102632.00;;;;10183191;29;20218;-79
2022/03/26 07:32:25;;;;;;;43.90;27.97;;;;;10.20;102647.00;;;;10168772;29;20217;-79
2022/03/26 07:37:27;;;;;;;51.17;28.80;;;;;10.50;102644.00;;;;10129034;29;20226;-78
2022/03/26 07:42:29;;;;;;;52.23;28.47;;;;;10.80;102641.00;;;;10145026;29;20264;-80
2022/03/26 07:47:35;;;;;;;48.17;27.40;;;;;11.10;102643.00;;;;10129119;29;20211;-79
2022/03/26 07:52:38;;;;;;;48.63;27.23;;;;;11.40;102649.00;;;;10128411;29;20783;-78
2022/03/26 07:57:40;;;;;;;53.80;28.57;;;;;11.60;102654.00;;;;10143772;29;20556;-79
2022/03/26 08:02:43;;;;;;;46.63;28.57;;;;;12.00;102658.00;;;;10129354;29;20226;-79
2022/03/26 08:07:45;;;;;;;46.33;30.20;;;;;12.20;102663.00;;;;10112289;29;20211;-80
2022/03/26 08:12:47;;;;;;;51.40;31.23;;;;;12.50;102661.00;;;;10089898;29;20204;-80
2022/03/26 08:17:49;;;;;;;50.13;30.83;;;;;13.10;102664.00;;;;10106154;29;20305;-80
2022/03/26 08:22:51;;;;;;;52.93;31.30;;;;;13.40;102661.00;;;;10127928;29;20207;-80
2022/03/26 08:27:53;;;;;;;46.10;31.60;;;;;13.60;102663.00;;;;10145473;29;20230;-80
2022/03/26 08:32:55;;;;;;;48.83;32.10;;;;;14.00;102667.00;;;;10131068;29;20198;-80
2022/03/26 08:37:57;;;;;;;51.67;32.67;;;;;14.20;102671.00;;;;10163040;29;20230;-79
2022/03/26 08:42:59;;;;;;;47.40;30.23;;;;;14.60;102683.00;;;;10158107;29;20206;-79
2022/03/26 08:48:01;;;;;;;50.37;31.20;;;;;14.80;102680.00;;;;10152897;29;20199;-79
2022/03/26 08:53:03;;;;;;;42.23;31.17;;;;;15.20;102675.00;;;;10141893;29;20254;-80
2022/03/26 08:58:07;;;;;;;47.60;30.63;;;;;15.60;102679.00;;;;10120167;29;20235;-78
2022/03/26 09:03:09;;;;;;;46.63;31.37;;;;;16.20;102677.00;;;;10127380;29;20392;-79
2022/03/26 09:08:11;;;;;;;45.23;30.67;;;;;16.40;102676.00;;;;10158040;29;20215;-79
2022/03/26 09:13:13;;;;;;;49.10;30.40;;;;;16.80;102684.00;;;;10142911;29;20191;-79
2022/03/26 09:18:15;;;;;;;43.83;29.40;;;;;17.20;102675.00;;;;10138003;29;20235;-80
2022/03/26 09:23:17;;;;;;;43.00;30.77;;;;;17.70;102671.00;;;;10102361;29;20203;-79
2022/03/26 09:28:19;;;;;;;47.28;30.77;;;;;18.00;102667.00;;;;10088597;29;20215;-79
2022/03/26 09:33:21;;;;;;;50.67;32.60;;;;;18.00;102668.00;;;;10128020;29;20267;-79
2022/03/26 09:38:24;;;;;;;41.22;30.23;;;;;18.40;102676.00;;;;10145547;29;20223;-79
2022/03/26 09:43:28;;;;;;;46.47;30.27;;;;;18.90;102671.00;;;;10197486;29;20206;-78
2022/03/26 09:48:30;;;;;;;42.63;31.05;;;;;19.40;102661.00;;;;10175887;29;20206;-80
2022/03/26 09:53:34;;;;;;;46.92;32.58;;;;;19.50;102662.00;;;;10131561;29;20219;-79
2022/03/26 09:58:36;;;;;;;47.22;30.80;;;;;19.70;102665.00;;;;10117897;29;20239;-79
2022/03/26 10:03:40;;;;;;;44.42;30.50;;;;;20.20;102655.00;;;;10122192;29;20230;-79
2022/03/26 10:08:47;;;;;;;44.10;30.88;;;;;20.40;102656.00;;;;10179839;29;20202;-79
2022/03/26 10:13:52;;;;;;;48.33;31.75;;;;;21.00;102657.00;;;;10196752;29;20258;-79
2022/03/26 10:18:57;;;;;;;48.22;31.17;;;;;21.50;102651.00;;;;10178403;29;20203;-79
2022/03/26 10:23:59;;;;;;;42.05;29.85;;;;;21.80;102654.00;;;;10140591;29;20681;-77
2022/03/26 10:29:01;;;;;;;43.40;29.45;;;;;21.70;102656.00;;;;10124743;29;20256;-79
2022/03/26 10:34:14;;;;;;;45.72;31.33;;;;;22.00;102647.00;;;;10138707;29;20240;-79
2022/03/26 10:39:22;;;;;;;41.63;30.10;;;;;22.40;102645.00;;;;10149486;29;20203;-79
2022/03/26 10:44:29;;;;;;;48.80;30.63;;;;;22.60;102638.00;;;;10147528;29;20195;-80
2022/03/26 10:49:38;;;;;;;43.78;29.33;;;;;22.40;102626.00;;;;10130301;29;20309;-79
2022/03/26 10:54:41;;;;;;;47.28;30.73;;;;;22.50;102627.00;;;;10107668;29;20319;-80
2022/03/26 10:59:43;;;;;;;46.53;29.70;;;;;22.40;102631.00;;;;10123013;29;20744;-79
2022/03/26 11:04:45;;;;;;;43.47;31.95;;;;;22.30;102621.00;;;;10128578;29;20645;-79
2022/03/26 11:09:47;;;;;;;41.15;31.48;;;;;22.50;102615.00;;;;10169520;29;20234;-79
2022/03/26 11:14:52;;;;;;;46.03;31.13;;;;;22.40;102619.00;;;;10169368;29;20194;-79
2022/03/26 11:20:30;;;;;;;49.17;30.75;;;;;23.00;102612.00;;;;10146045;29;20210;-79
2022/03/26 11:26:01;;;;;;;42.20;28.30;;;;;23.10;102607.00;;;;10145425;29;20234;-79
2022/03/26 11:31:13;;;;;;;39.75;27.88;;;;;23.20;102612.00;;;;10145040;29;20205;-80
2022/03/26 11:36:19;;;;;;;43.53;28.88;;;;;23.10;102608.00;;;;10180500;29;20218;-79
2022/03/26 11:41:32;;;;;;;47.13;29.73;;;;;22.80;102606.00;;;;10120895;29;20203;-79
2022/03/26 11:52:18;;;;;;;41.22;27.83;;;;;23.20;102593.00;;;;10159401;29;20210;-79
2022/03/26 11:57:22;;;;;;;42.10;27.98;;;;;23.60;102599.00;;;;10175233;29;20226;-79
2022/03/26 12:02:27;;;;;;;38.47;25.38;;;;;23.60;102590.00;;;;10129910;29;20636;-79
2022/03/26 12:07:30;;;;;;;40.25;28.90;;;;;23.60;102585.00;;;;10129785;29;20326;-80
2022/03/26 12:13:18;;;;;;;42.72;29.00;;;;;23.40;102587.00;;;;10120553;29;20203;-78
2022/03/26 12:18:31;;;;;;;40.63;27.20;;;;;23.40;102574.00;;;;10001337;29;20201;-80
2022/03/26 12:23:34;;;;;;;35.17;26.38;;;;;23.60;102567.00;;;;10125077;29;20215;-80
2022/03/26 12:28:43;;;;;;;42.92;25.17;;;;;23.30;102558.00;;;;10144717;29;20215;-80
2022/03/26 12:33:49;;;;;;;38.17;25.38;;;;;23.30;102555.00;;;;10142754;29;20206;-80
2022/03/26 12:38:54;;;;;;;38.20;25.05;;;;;23.80;102553.00;;;;10180484;29;20672;-79
2022/03/26 12:44:01;;;;;;;35.60;25.42;;;;;23.90;102542.00;;;;10167251;29;20202;-80
2022/03/26 12:49:22;;;;;;;39.83;24.20;;;;;23.80;102539.00;;;;10159869;29;20317;-79
2022/03/26 12:54:28;;;;;;;34.25;23.75;;;;;24.10;102529.00;;;;10157463;29;20713;-80
2022/03/26 12:59:30;;;;;;;37.90;22.75;;;;;24.10;102544.00;;;;10157646;29;20811;-79
2022/03/26 13:04:37;;;;;;;34.17;23.55;;;;;24.20;102535.00;;;;10134621;29;20214;-80
2022/03/26 13:09:39;;;;;;;34.38;23.95;;;;;24.70;102531.00;;;;10101507;29;20243;-79
2022/03/26 13:14:48;;;;;;;32.58;23.27;;;;;24.90;102518.00;;;;10087609;29;20238;-80
2022/03/26 13:19:56;;;;;;;36.63;21.70;;;;;24.50;102522.00;;;;10091408;29;20300;-80
2022/03/26 13:24:58;;;;;;;34.85;22.05;;;;;24.70;102514.00;;;;10142464;29;20235;-79
2022/03/26 13:30:10;;;;;;;40.58;20.88;;;;;25.10;102508.00;;;;10141176;29;20233;-79
2022/03/26 13:35:13;;;;;;;29.45;20.05;;;;;25.80;102506.00;;;;10125699;29;20203;-78
2022/03/26 13:40:30;;;;;;;31.50;20.40;;;;;26.70;102492.00;;;;10088853;29;20248;-79
2022/03/26 13:45:33;;;;;;;33.55;20.58;;;;;27.20;102487.00;;;;10116025;29;20223;-80
2022/03/26 13:50:38;;;;;;;39.88;21.83;;;;;27.80;102478.00;;;;10136924;29;20254;-79
2022/03/26 13:56:02;;;;;;;35.65;21.00;;;;;28.30;102459.00;;;;10143147;29;20242;-79
2022/03/26 14:01:08;;;;;;;31.55;18.42;;;;;28.40;102454.00;;;;10109238;29;20230;-79
2022/03/26 14:06:10;;;;;;;28.25;18.02;;;;;28.60;102445.00;;;;10141483;29;20219;-79
2022/03/26 14:11:14;;;;;;;26.92;17.67;;;;;28.50;102438.00;;;;10126722;29;20191;-78
2022/03/26 14:16:17;;;;;;;24.85;15.68;;;;;28.80;102440.00;;;;10145762;29;20211;-80
2022/03/26 14:21:19;;;;;;;26.48;16.23;;;;;29.40;102413.00;;;;10163404;29;20199;-79
2022/03/26 14:26:21;;;;;;;23.85;15.93;;;;;29.50;102423.00;;;;10163603;29;20230;-79
2022/03/26 14:31:23;;;;;;;23.70;16.50;;;;;29.00;102419.00;;;;10144913;29;20279;-78
2022/03/26 14:36:25;;;;;;;23.17;15.60;;;;;26.40;102428.00;;;;10137754;29;20225;-79
2022/03/26 14:41:27;;;;;;;25.35;16.23;;;;;28.00;102426.00;;;;10107351;29;20210;-80
2022/03/26 14:46:30;;;;;;;25.88;15.55;;;;;27.80;102413.00;;;;10111670;29;20223;-80
2022/03/26 14:51:32;;;;;;;20.63;14.25;;;;;26.80;102416.00;;;;10162106;29;20268;-79
2022/03/26 14:56:34;;;;;;;20.92;13.25;;;;;26.70;102406.00;;;;10148370;29;20232;-79
2022/03/26 15:01:37;;;;;;;17.42;12.05;;;;;27.70;102393.00;;;;10146179;29;20223;-79
2022/03/26 15:06:39;;;;;;;17.33;12.43;;;;;26.00;102422.00;;;;10118748;29;20783;-80
2022/03/26 15:11:41;;;;;;;39.72;21.25;;;;;26.50;102401.00;;;;10111638;29;20590;-79
2022/03/26 15:16:43;;;;;;;14.10;11.70;;;;;27.10;102402.00;;;;10107672;29;20199;-80
2022/03/26 15:21:46;;;;;;;18.00;11.38;;;;;25.60;102413.00;;;;10090887;29;20212;-80
2022/03/26 15:26:48;;;;;;;21.35;13.85;;;;;23.90;102430.00;;;;10089547;29;20245;-79
2022/03/26 15:31:53;;;;;;;18.55;9.00;;;;;23.40;102418.00;;;;10105741;29;20259;-79
2022/03/26 15:36:55;;;;;;;13.07;9.27;;;;;23.20;102416.00;;;;10101439;29;20766;-80
2022/03/26 15:41:57;;;;;;;13.82;8.70;;;;;23.80;102411.00;;;;10159154;29;20199;-79
2022/03/26 15:47:03;;;;;;;14.27;7.78;;;;;22.60;102428.00;;;;10158586;29;20226;-79
2022/03/26 15:52:07;;;;;;;11.90;7.50;;;;;23.00;102426.00;;;;10128183;29;20202;-80
2022/03/26 15:57:09;;;;;;;10.75;6.60;;;;;21.70;102433.00;;;;10182450;29;20202;-79
2022/03/26 16:02:11;;;;;;;9.45;6.38;;;;;20.90;102427.00;;;;10170618;29;20705;-80
2022/03/26 16:07:13;;;;;;;8.05;5.53;;;;;20.00;102420.00;;;;10158885;29;20227;-80
2022/03/26 16:12:16;;;;;;;9.25;6.30;;;;;19.70;102413.00;;;;10129177;29;20207;-79
2022/03/26 16:17:18;;;;;;;11.55;6.07;;;;;19.40;102416.00;;;;10128157;29;20226;-80
2022/03/26 16:22:20;;;;;;;8.05;5.43;;;;;19.30;102420.00;;;;10159740;29;20203;-80
2022/03/26 16:27:22;;;;;;;17.52;7.70;;;;;19.30;102408.00;;;;10127419;29;20226;-79
2022/03/26 16:32:24;;;;;;;9.20;5.18;;;;;19.10;102415.00;;;;10129543;29;20212;-79
2022/03/26 16:37:28;;;;;;;11.25;5.38;;;;;18.90;102407.00;;;;10134749;29;20245;-80
2022/03/26 16:42:30;;;;;;;9.20;5.93;;;;;18.70;102420.00;;;;10142036;29;20750;-80
2022/03/26 16:47:32;;;;;;;14.18;6.03;;;;;18.50;102417.00;;;;10110468;29;20267;-79
2022/03/26 16:52:34;;;;;;;10.50;6.23;;;;;18.30;102415.00;;;;10141755;29;20662;-80
2022/03/26 16:57:36;;;;;;;11.90;7.22;;;;;18.20;102419.00;;;;10110555;29;20237;-79
2022/03/26 17:02:38;;;;;;;12.47;6.03;;;;;18.10;102422.00;;;;10115602;29;20228;-81
2022/03/26 17:07:39;;;;;;;6.47;5.03;;;;;18.00;102415.00;;;;10112176;29;20586;-80
2022/03/26 17:12:42;;;;;;;8.53;4.93;;;;;17.80;102426.00;;;;10102836;29;20256;-79
2022/03/26 17:17:44;;;;;;;10.13;4.80;;;;;17.60;102422.00;;;;10138396;29;20265;-80
2022/03/26 17:22:46;;;;;;;10.63;5.20;;;;;17.50;102429.00;;;;10126543;29;20235;-80
2022/03/26 17:27:48;;;;;;;10.70;6.10;;;;;17.20;102435.00;;;;10148542;29;20251;-79
2022/03/26 17:32:50;;;;;;;8.57;6.27;;;;;17.00;102436.00;;;;10132954;29;20267;-79
2022/03/26 17:37:52;;;;;;;9.67;6.70;;;;;16.80;102436.00;;;;10115075;29;20218;-80
2022/03/26 17:42:54;;;;;;;11.27;6.40;;;;;16.60;102436.00;;;;10094329;29;20275;-79
2022/03/26 17:47:56;;;;;;;11.30;6.93;;;;;16.40;102433.00;;;;10125624;29;20287;-80
2022/03/26 17:52:58;;;;;;;9.73;6.10;;;;;16.20;102436.00;;;;10165955;29;20207;-80
2022/03/26 17:58:01;;;;;;;8.60;5.80;;;;;16.00;102434.00;;;;10129394;29;20219;-80
2022/03/26 18:03:21;;;;;;;8.37;5.57;;;;;15.80;102437.00;;;;10123510;29;20438;-79
2022/03/26 18:08:22;;;;;;;8.60;5.40;;;;;15.60;102449.00;;;;10126358;29;20224;-80
2022/03/26 18:13:24;;;;;;;6.63;5.50;;;;;15.50;102444.00;;;;10095718;29;20207;-80
2022/03/26 18:18:27;;;;;;;8.57;5.50;;;;;15.30;102450.00;;;;10095059;29;20659;-80
2022/03/26 18:23:29;;;;;;;7.57;5.30;;;;;15.10;102453.00;;;;10110511;29;20203;-80
2022/03/26 18:28:31;;;;;;;11.10;5.87;;;;;14.90;102445.00;;;;10110925;29;20342;-80
2022/03/26 18:33:32;;;;;;;10.40;8.33;;;;;14.70;102455.00;;;;10111810;29;20614;-80
2022/03/26 18:38:34;;;;;;;9.37;6.60;;;;;14.50;102458.00;;;;10140905;29;20259;-80
2022/03/26 18:43:36;;;;;;;11.27;5.90;;;;;14.30;102462.00;;;;10163991;29;20203;-80
2022/03/26 18:48:38;;;;;;;9.13;5.70;;;;;14.10;102461.00;;;;10149127;29;20222;-80
2022/03/26 18:53:40;;;;;;;9.43;6.70;;;;;14.00;102463.00;;;;10134604;29;20236;-79
2022/03/26 18:58:42;;;;;;;8.30;6.20;;;;;13.90;102470.00;;;;10166019;29;20202;-79
2022/03/26 19:03:44;;;;;;;10.20;6.07;;;;;13.80;102467.00;;;;10127953;29;20231;-80
2022/03/26 19:08:46;;;;;;;12.30;6.47;;;;;13.60;102468.00;;;;10133792;29;20261;-79
2022/03/26 19:13:49;;;;;;;8.53;6.40;;;;;13.40;102476.00;;;;10148608;29;20199;-80
2022/03/26 19:18:51;;;;;;;15.17;8.93;;;;;13.30;102495.00;;;;10148489;29;20203;-80
2022/03/26 19:23:55;;;;;;;11.20;7.13;;;;;13.30;102490.00;;;;10147700;29;20824;-80
2022/03/26 19:34:19;;;;;;;10.80;7.50;;;;;12.80;102492.00;;;;10171345;29;20204;-80
2022/03/26 19:39:21;;;;;;;12.27;8.33;;;;;12.60;102506.00;;;;10107698;29;20206;-80
2022/03/26 19:44:23;;;;;;;17.00;9.20;;;;;12.50;102508.00;;;;10106257;29;20203;-80
2022/03/26 19:49:25;;;;;;;15.40;9.80;;;;;12.40;102519.00;;;;10137812;29;20275;-80
2022/03/26 19:54:27;;;;;;;25.03;12.63;;;;;12.30;102523.00;;;;10146140;29;20215;-80
2022/03/26 19:59:31;;;;;;;18.87;12.47;;;;;12.30;102524.00;;;;10145056;29;20206;-79
2022/03/26 20:04:33;;;;;;;23.53;15.33;;;;;12.20;102528.00;;;;10121921;29;20195;-80
2022/03/26 20:09:35;;;;;;;27.67;16.73;;;;;12.20;102539.00;;;;10107286;29;20223;-79
2022/03/26 20:14:37;;;;;;;29.73;16.13;;;;;12.20;102531.00;;;;10106698;29;20219;-80
2022/03/26 20:19:39;;;;;;;33.13;16.53;;;;;12.20;102547.00;;;;10107326;29;20208;-80
2022/03/26 20:24:41;;;;;;;31.53;16.17;;;;;12.10;102542.00;;;;10120535;29;20195;-79
2022/03/26 20:29:53;;;;;;;27.87;16.90;;;;;12.00;102552.00;;;;10120662;29;20228;-79
2022/03/26 20:34:55;;;;;;;28.67;18.13;;;;;11.90;102560.00;;;;10135653;29;20233;-80
2022/03/26 20:39:58;;;;;;;31.23;18.00;;;;;11.80;102557.00;;;;10136354;29;20211;-80
2022/03/26 20:45:00;;;;;;;31.70;18.47;;;;;11.70;102561.00;;;;10109561;29;20278;-79
2022/03/26 20:50:03;;;;;;;32.87;17.87;;;;;11.60;102571.00;;;;10132261;29;20309;-80
2022/03/26 20:55:05;;;;;;;44.23;20.87;;;;;11.50;102576.00;;;;10131877;29;20199;-80
2022/03/26 21:00:10;;;;;;;33.77;19.67;;;;;11.50;102573.00;;;;10125643;29;20226;-80
2022/03/26 21:05:12;;;;;;;34.00;20.17;;;;;11.40;102572.00;;;;10118860;29;20620;-80
2022/03/26 21:10:14;;;;;;;34.47;21.17;;;;;11.30;102565.00;;;;10126641;29;20458;-80
2022/03/26 21:15:17;;;;;;;41.23;23.20;;;;;11.20;102571.00;;;;10126002;29;20307;-80
2022/03/26 21:20:19;;;;;;;42.17;22.43;;;;;11.20;102565.00;;;;10125417;29;20195;-79
2022/03/26 21:30:47;;;;;;;36.23;22.67;;;;;11.00;102565.00;;;;10158424;29;20257;-79
2022/03/26 21:35:49;;;;;;;39.83;22.93;;;;;10.90;102568.00;;;;10125691;29;20263;-79
2022/03/26 21:40:53;;;;;;;37.73;25.77;;;;;10.80;102563.00;;;;10135361;29;20214;-80
2022/03/26 21:45:56;;;;;;;40.07;25.13;;;;;10.80;102565.00;;;;10090075;29;20203;-79
2022/03/26 21:50:58;;;;;;;40.10;24.90;;;;;10.80;102562.00;;;;10143255;29;20604;-80
2022/03/26 21:56:03;;;;;;;38.90;24.70;;;;;10.70;102558.00;;;;10128837;29;20667;-80
2022/03/26 22:01:06;;;;;;;40.00;24.63;;;;;10.70;102564.00;;;;10142987;29;20226;-79
2022/03/26 22:06:10;;;;;;;40.37;23.50;;;;;10.70;102571.00;;;;10143597;29;20234;-80
2022/03/26 22:11:11;;;;;;;37.50;22.33;;;;;10.60;102580.00;;;;10145623;29;20721;-80
2022/03/26 22:16:14;;;;;;;39.00;23.60;;;;;10.50;102580.00;;;;10138622;29;20195;-80
2022/03/26 22:21:16;;;;;;;42.87;23.30;;;;;10.50;102580.00;;;;10137171;29;20202;-79
2022/03/26 22:26:18;;;;;;;35.93;23.17;;;;;10.40;102582.00;;;;10151509;29;20550;-79
2022/03/26 22:31:20;;;;;;;34.07;22.63;;;;;10.30;102581.00;;;;10136439;29;20610;-80
2022/03/26 22:36:22;;;;;;;33.53;22.00;;;;;10.20;102584.00;;;;10143621;29;20200;-79
2022/03/26 22:41:24;;;;;;;36.77;22.50;;;;;10.00;102594.00;;;;10099296;29;20298;-80
2022/03/26 22:46:26;;;;;;;35.27;22.17;;;;;9.90;102592.00;;;;10097080;29;20299;-79
2022/03/26 22:51:28;;;;;;;39.23;22.43;;;;;9.70;102599.00;;;;10096419;29;20594;-80
2022/03/26 22:56:32;;;;;;;33.57;22.27;;;;;9.60;102595.00;;;;10097893;29;20199;-80
2022/03/26 23:01:57;;;;;;;37.00;24.17;;;;;9.40;102592.00;;;;10129689;29;20219;-80
2022/03/26 23:07:00;;;;;;;36.83;23.63;;;;;9.40;102595.00;;;;10151767;29;20685;-80
2022/03/26 23:12:02;;;;;;;33.97;22.77;;;;;9.30;102585.00;;;;10153135;29;20218;-81
2022/03/26 23:17:04;;;;;;;33.73;21.50;;;;;9.30;102594.00;;;;10182838;29;20666;-80
2022/03/26 23:22:06;;;;;;;31.07;21.10;;;;;9.30;102588.00;;;;10166692;29;20277;-79
2022/03/26 23:27:10;;;;;;;31.53;20.03;;;;;9.20;102590.00;;;;10127075;29;20224;-80
2022/03/26 23:32:12;;;;;;;34.03;20.43;;;;;9.20;102589.00;;;;10095965;29;20227;-80
2022/03/26 23:37:14;;;;;;;29.57;19.20;;;;;9.00;102596.00;;;;10103492;29;20821;-80
2022/03/26 23:42:16;;;;;;;32.20;20.37;;;;;8.90;102598.00;;;;10187871;29;20205;-80
2022/03/26 23:47:18;;;;;;;33.80;19.87;;;;;8.80;102600.00;;;;10160445;29;20218;-78
2022/03/26 23:52:20;;;;;;;31.13;18.70;;;;;8.70;102603.00;;;;10148078;29;20218;-79
2022/03/26 23:57:22;;;;;;;28.23;18.77;;;;;8.60;102603.00;;;;10147779;29;20207;-80
